sensor_id;sensor_type;location;lat;lon;timestamp;P1;durP1;ratioP1;P2;durP2;ratioP2
53263;SDS011;39153;52.680;6.172;2023-03-01T00:01:04;19.80;;;12.20;;
53263;SDS011;39153;52.680;6.172;2023-03-01T00:03:31;23.80;;;13.13;;
53263;SDS011;39153;52.680;6.172;2023-03-01T00:05:57;23.08;;;12.57;;
53263;SDS011;39153;52.680;6.172;2023-03-01T00:08:24;26.25;;;14.57;;
53263;SDS011;39153;52.680;6.172;2023-03-01T00:10:59;23.90;;;13.32;;
53263;SDS011;39153;52.680;6.172;2023-03-01T00:13:26;23.30;;;12.98;;
53263;SDS011;39153;52.680;6.172;2023-03-01T00:15:51;24.65;;;14.32;;
53263;SDS011;39153;52.680;6.172;2023-03-01T00:18:17;22.73;;;13.45;;
53263;SDS011;39153;52.680;6.172;2023-03-01T00:20:48;26.02;;;12.98;;
53263;SDS011;39153;52.680;6.172;2023-03-01T00:23:18;24.98;;;12.82;;
53263;SDS011;39153;52.680;6.172;2023-03-01T00:25:44;23.75;;;12.82;;
53263;SDS011;39153;52.680;6.172;2023-03-01T00:28:10;22.70;;;12.38;;
53263;SDS011;39153;52.680;6.172;2023-03-01T00:30:36;25.00;;;13.23;;
53263;SDS011;39153;52.680;6.172;2023-03-01T00:33:01;22.55;;;13.80;;
53263;SDS011;39153;52.680;6.172;2023-03-01T00:35:27;27.52;;;13.10;;
53263;SDS011;39153;52.680;6.172;2023-03-01T00:37:52;23.13;;;13.85;;
53263;SDS011;39153;52.680;6.172;2023-03-01T00:40:26;23.05;;;12.70;;
53263;SDS011;39153;52.680;6.172;2023-03-01T00:42:53;23.55;;;13.63;;
53263;SDS011;39153;52.680;6.172;2023-03-01T00:45:19;24.58;;;13.60;;
53263;SDS011;39153;52.680;6.172;2023-03-01T00:47:44;27.10;;;13.80;;
53263;SDS011;39153;52.680;6.172;2023-03-01T00:50:11;25.25;;;13.60;;
53263;SDS011;39153;52.680;6.172;2023-03-01T00:52:37;23.15;;;12.98;;
53263;SDS011;39153;52.680;6.172;2023-03-01T00:55:04;21.80;;;12.68;;
53263;SDS011;39153;52.680;6.172;2023-03-01T00:57:31;21.98;;;12.90;;
53263;SDS011;39153;52.680;6.172;2023-03-01T00:59:57;23.63;;;13.57;;
53263;SDS011;39153;52.680;6.172;2023-03-01T01:02:22;24.40;;;13.65;;
53263;SDS011;39153;52.680;6.172;2023-03-01T01:04:48;21.92;;;13.63;;
53263;SDS011;39153;52.680;6.172;2023-03-01T01:07:14;23.92;;;12.88;;
53263;SDS011;39153;52.680;6.172;2023-03-01T01:09:40;24.15;;;12.80;;
53263;SDS011;39153;52.680;6.172;2023-03-01T01:12:06;25.17;;;12.55;;
53263;SDS011;39153;52.680;6.172;2023-03-01T01:14:32;28.65;;;15.43;;
53263;SDS011;39153;52.680;6.172;2023-03-01T01:16:57;27.10;;;14.68;;
53263;SDS011;39153;52.680;6.172;2023-03-01T01:19:23;28.35;;;13.80;;
53263;SDS011;39153;52.680;6.172;2023-03-01T01:21:49;29.52;;;14.80;;
53263;SDS011;39153;52.680;6.172;2023-03-01T01:24:15;27.92;;;14.65;;
53263;SDS011;39153;52.680;6.172;2023-03-01T01:26:42;28.30;;;14.95;;
53263;SDS011;39153;52.680;6.172;2023-03-01T01:29:08;28.15;;;14.00;;
53263;SDS011;39153;52.680;6.172;2023-03-01T01:31:35;27.52;;;15.60;;
53263;SDS011;39153;52.680;6.172;2023-03-01T01:34:03;27.58;;;13.82;;
53263;SDS011;39153;52.680;6.172;2023-03-01T01:36:31;25.55;;;14.18;;
53263;SDS011;39153;52.680;6.172;2023-03-01T01:38:57;29.13;;;14.85;;
53263;SDS011;39153;52.680;6.172;2023-03-01T01:41:24;26.77;;;13.65;;
53263;SDS011;39153;52.680;6.172;2023-03-01T01:46:56;26.10;;;13.85;;
53263;SDS011;39153;52.680;6.172;2023-03-01T01:49:27;31.25;;;15.48;;
53263;SDS011;39153;52.680;6.172;2023-03-01T01:51:59;34.58;;;15.88;;
53263;SDS011;39153;52.680;6.172;2023-03-01T01:57:14;32.35;;;15.05;;
53263;SDS011;39153;52.680;6.172;2023-03-01T01:59:45;33.00;;;16.02;;
53263;SDS011;39153;52.680;6.172;2023-03-01T02:02:16;30.95;;;15.38;;
53263;SDS011;39153;52.680;6.172;2023-03-01T02:04:43;33.65;;;16.05;;
53263;SDS011;39153;52.680;6.172;2023-03-01T02:07:16;33.47;;;16.80;;
53263;SDS011;39153;52.680;6.172;2023-03-01T02:09:45;31.55;;;15.88;;
53263;SDS011;39153;52.680;6.172;2023-03-01T02:12:13;33.47;;;15.93;;
53263;SDS011;39153;52.680;6.172;2023-03-01T02:14:40;31.23;;;15.93;;
53263;SDS011;39153;52.680;6.172;2023-03-01T02:17:06;31.98;;;16.45;;
53263;SDS011;39153;52.680;6.172;2023-03-01T02:22:23;40.88;;;17.70;;
53263;SDS011;39153;52.680;6.172;2023-03-01T02:27:25;38.65;;;16.00;;
53263;SDS011;39153;52.680;6.172;2023-03-01T02:29:57;30.27;;;16.17;;
53263;SDS011;39153;52.680;6.172;2023-03-01T02:32:22;36.42;;;17.58;;
53263;SDS011;39153;52.680;6.172;2023-03-01T02:34:53;36.30;;;17.98;;
53263;SDS011;39153;52.680;6.172;2023-03-01T02:37:20;31.42;;;17.08;;
53263;SDS011;39153;52.680;6.172;2023-03-01T02:39:51;34.70;;;17.88;;
53263;SDS011;39153;52.680;6.172;2023-03-01T02:42:23;36.17;;;17.83;;
53263;SDS011;39153;52.680;6.172;2023-03-01T02:44:55;38.30;;;18.15;;
53263;SDS011;39153;52.680;6.172;2023-03-01T02:47:21;44.35;;;18.48;;
53263;SDS011;39153;52.680;6.172;2023-03-01T02:49:47;33.42;;;17.48;;
53263;SDS011;39153;52.680;6.172;2023-03-01T02:52:30;36.75;;;18.20;;
53263;SDS011;39153;52.680;6.172;2023-03-01T02:55:12;38.05;;;18.52;;
53263;SDS011;39153;52.680;6.172;2023-03-01T02:57:41;36.35;;;18.13;;
53263;SDS011;39153;52.680;6.172;2023-03-01T03:00:12;44.10;;;19.35;;
53263;SDS011;39153;52.680;6.172;2023-03-01T03:02:47;38.63;;;19.35;;
53263;SDS011;39153;52.680;6.172;2023-03-01T03:05:18;38.17;;;17.83;;
53263;SDS011;39153;52.680;6.172;2023-03-01T03:07:48;46.33;;;18.48;;
53263;SDS011;39153;52.680;6.172;2023-03-01T03:10:16;39.03;;;18.05;;
53263;SDS011;39153;52.680;6.172;2023-03-01T03:12:48;40.00;;;17.65;;
53263;SDS011;39153;52.680;6.172;2023-03-01T03:15:16;37.13;;;17.05;;
53263;SDS011;39153;52.680;6.172;2023-03-01T03:17:42;37.80;;;17.13;;
53263;SDS011;39153;52.680;6.172;2023-03-01T03:20:09;35.10;;;15.45;;
53263;SDS011;39153;52.680;6.172;2023-03-01T03:22:38;35.13;;;16.17;;
53263;SDS011;39153;52.680;6.172;2023-03-01T03:25:05;33.63;;;15.82;;
53263;SDS011;39153;52.680;6.172;2023-03-01T03:27:36;37.95;;;16.60;;
53263;SDS011;39153;52.680;6.172;2023-03-01T03:30:03;32.63;;;15.43;;
53263;SDS011;39153;52.680;6.172;2023-03-01T03:32:34;45.72;;;16.05;;
53263;SDS011;39153;52.680;6.172;2023-03-01T03:35:01;30.00;;;15.18;;
53263;SDS011;39153;52.680;6.172;2023-03-01T03:37:33;36.05;;;15.95;;
53263;SDS011;39153;52.680;6.172;2023-03-01T03:40:27;34.42;;;15.75;;
53263;SDS011;39153;52.680;6.172;2023-03-01T03:43:03;48.67;;;16.08;;
53263;SDS011;39153;52.680;6.172;2023-03-01T03:45:30;36.95;;;15.88;;
53263;SDS011;39153;52.680;6.172;2023-03-01T03:47:58;35.63;;;16.38;;
53263;SDS011;39153;52.680;6.172;2023-03-01T03:50:25;34.40;;;16.90;;
53263;SDS011;39153;52.680;6.172;2023-03-01T03:52:51;38.90;;;17.58;;
53263;SDS011;39153;52.680;6.172;2023-03-01T03:55:16;37.90;;;16.98;;
53263;SDS011;39153;52.680;6.172;2023-03-01T03:57:44;39.30;;;17.52;;
53263;SDS011;39153;52.680;6.172;2023-03-01T04:00:20;43.95;;;16.23;;
53263;SDS011;39153;52.680;6.172;2023-03-01T04:02:49;46.78;;;16.48;;
53263;SDS011;39153;52.680;6.172;2023-03-01T04:05:16;68.70;;;17.15;;
53263;SDS011;39153;52.680;6.172;2023-03-01T04:07:43;70.22;;;16.65;;
53263;SDS011;39153;52.680;6.172;2023-03-01T04:10:14;76.82;;;15.38;;
53263;SDS011;39153;52.680;6.172;2023-03-01T04:12:42;44.17;;;16.50;;
53263;SDS011;39153;52.680;6.172;2023-03-01T04:15:08;68.90;;;15.10;;
53263;SDS011;39153;52.680;6.172;2023-03-01T04:17:39;52.95;;;15.18;;
53263;SDS011;39153;52.680;6.172;2023-03-01T04:20:09;62.30;;;16.58;;
53263;SDS011;39153;52.680;6.172;2023-03-01T04:22:42;49.97;;;14.35;;
53263;SDS011;39153;52.680;6.172;2023-03-01T04:25:11;68.78;;;15.02;;
53263;SDS011;39153;52.680;6.172;2023-03-01T04:27:39;49.83;;;15.07;;
53263;SDS011;39153;52.680;6.172;2023-03-01T04:30:06;37.80;;;14.75;;
53263;SDS011;39153;52.680;6.172;2023-03-01T04:32:32;54.03;;;13.88;;
53263;SDS011;39153;52.680;6.172;2023-03-01T04:34:59;65.53;;;13.82;;
53263;SDS011;39153;52.680;6.172;2023-03-01T04:37:25;74.35;;;16.05;;
53263;SDS011;39153;52.680;6.172;2023-03-01T04:39:51;60.80;;;15.02;;
53263;SDS011;39153;52.680;6.172;2023-03-01T04:42:18;57.03;;;14.52;;
53263;SDS011;39153;52.680;6.172;2023-03-01T04:44:44;33.72;;;13.40;;
53263;SDS011;39153;52.680;6.172;2023-03-01T04:47:10;42.50;;;14.07;;
53263;SDS011;39153;52.680;6.172;2023-03-01T04:49:36;36.78;;;12.93;;
53263;SDS011;39153;52.680;6.172;2023-03-01T04:52:03;37.88;;;13.38;;
53263;SDS011;39153;52.680;6.172;2023-03-01T04:54:29;39.40;;;13.05;;
53263;SDS011;39153;52.680;6.172;2023-03-01T04:56:59;39.42;;;13.45;;
53263;SDS011;39153;52.680;6.172;2023-03-01T04:59:25;31.73;;;13.85;;
53263;SDS011;39153;52.680;6.172;2023-03-01T05:01:51;28.67;;;13.07;;
53263;SDS011;39153;52.680;6.172;2023-03-01T05:04:20;37.78;;;13.20;;
53263;SDS011;39153;52.680;6.172;2023-03-01T05:06:47;35.35;;;14.18;;
53263;SDS011;39153;52.680;6.172;2023-03-01T05:09:13;46.88;;;13.52;;
53263;SDS011;39153;52.680;6.172;2023-03-01T05:11:38;72.57;;;15.07;;
53263;SDS011;39153;52.680;6.172;2023-03-01T05:14:05;48.20;;;14.18;;
53263;SDS011;39153;52.680;6.172;2023-03-01T05:16:32;38.20;;;13.48;;
53263;SDS011;39153;52.680;6.172;2023-03-01T05:18:59;37.08;;;13.40;;
53263;SDS011;39153;52.680;6.172;2023-03-01T05:21:25;37.58;;;14.13;;
53263;SDS011;39153;52.680;6.172;2023-03-01T05:23:51;46.08;;;14.23;;
53263;SDS011;39153;52.680;6.172;2023-03-01T05:26:18;24.85;;;13.68;;
53263;SDS011;39153;52.680;6.172;2023-03-01T05:28:47;32.72;;;14.18;;
53263;SDS011;39153;52.680;6.172;2023-03-01T05:31:12;75.25;;;16.80;;
53263;SDS011;39153;52.680;6.172;2023-03-01T05:33:39;46.72;;;15.30;;
53263;SDS011;39153;52.680;6.172;2023-03-01T05:36:08;34.10;;;14.07;;
53263;SDS011;39153;52.680;6.172;2023-03-01T05:38:35;38.05;;;15.18;;
53263;SDS011;39153;52.680;6.172;2023-03-01T05:41:01;37.70;;;15.00;;
53263;SDS011;39153;52.680;6.172;2023-03-01T05:43:29;27.15;;;13.60;;
53263;SDS011;39153;52.680;6.172;2023-03-01T05:45:57;26.73;;;13.27;;
53263;SDS011;39153;52.680;6.172;2023-03-01T05:48:23;45.50;;;13.85;;
53263;SDS011;39153;52.680;6.172;2023-03-01T05:50:49;26.00;;;13.00;;
53263;SDS011;39153;52.680;6.172;2023-03-01T05:53:16;25.50;;;12.52;;
53263;SDS011;39153;52.680;6.172;2023-03-01T05:55:44;32.05;;;13.27;;
53263;SDS011;39153;52.680;6.172;2023-03-01T05:58:13;28.85;;;12.93;;
53263;SDS011;39153;52.680;6.172;2023-03-01T06:00:40;26.13;;;13.10;;
53263;SDS011;39153;52.680;6.172;2023-03-01T06:03:09;26.60;;;13.70;;
53263;SDS011;39153;52.680;6.172;2023-03-01T06:05:36;26.23;;;13.55;;
53263;SDS011;39153;52.680;6.172;2023-03-01T06:08:02;25.80;;;13.00;;
53263;SDS011;39153;52.680;6.172;2023-03-01T06:10:28;25.50;;;12.85;;
53263;SDS011;39153;52.680;6.172;2023-03-01T06:12:54;23.30;;;12.20;;
53263;SDS011;39153;52.680;6.172;2023-03-01T06:15:21;22.70;;;12.85;;
53263;SDS011;39153;52.680;6.172;2023-03-01T06:17:47;21.10;;;11.80;;
53263;SDS011;39153;52.680;6.172;2023-03-01T06:20:17;23.60;;;12.05;;
53263;SDS011;39153;52.680;6.172;2023-03-01T06:22:44;21.60;;;12.35;;
53263;SDS011;39153;52.680;6.172;2023-03-01T06:25:11;21.52;;;12.52;;
53263;SDS011;39153;52.680;6.172;2023-03-01T06:27:38;22.13;;;12.13;;
53263;SDS011;39153;52.680;6.172;2023-03-01T06:30:05;23.02;;;12.30;;
53263;SDS011;39153;52.680;6.172;2023-03-01T06:32:32;22.35;;;11.95;;
53263;SDS011;39153;52.680;6.172;2023-03-01T06:34:57;22.80;;;11.60;;
53263;SDS011;39153;52.680;6.172;2023-03-01T06:37:23;23.98;;;12.32;;
53263;SDS011;39153;52.680;6.172;2023-03-01T06:39:52;25.80;;;14.25;;
53263;SDS011;39153;52.680;6.172;2023-03-01T06:42:18;24.95;;;12.77;;
53263;SDS011;39153;52.680;6.172;2023-03-01T06:44:44;24.65;;;12.57;;
53263;SDS011;39153;52.680;6.172;2023-03-01T06:47:10;23.10;;;12.60;;
53263;SDS011;39153;52.680;6.172;2023-03-01T06:49:36;24.30;;;12.18;;
53263;SDS011;39153;52.680;6.172;2023-03-01T06:52:02;25.92;;;12.15;;
53263;SDS011;39153;52.680;6.172;2023-03-01T06:54:28;25.67;;;13.43;;
53263;SDS011;39153;52.680;6.172;2023-03-01T06:56:54;26.13;;;13.35;;
53263;SDS011;39153;52.680;6.172;2023-03-01T06:59:20;26.05;;;13.30;;
53263;SDS011;39153;52.680;6.172;2023-03-01T07:01:45;25.75;;;13.88;;
53263;SDS011;39153;52.680;6.172;2023-03-01T07:04:12;23.67;;;12.55;;
53263;SDS011;39153;52.680;6.172;2023-03-01T07:06:38;25.90;;;13.32;;
53263;SDS011;39153;52.680;6.172;2023-03-01T07:09:04;26.33;;;13.52;;
53263;SDS011;39153;52.680;6.172;2023-03-01T07:11:29;25.67;;;13.32;;
53263;SDS011;39153;52.680;6.172;2023-03-01T07:13:55;26.65;;;13.73;;
53263;SDS011;39153;52.680;6.172;2023-03-01T07:16:21;28.67;;;14.27;;
53263;SDS011;39153;52.680;6.172;2023-03-01T07:18:47;24.27;;;13.27;;
53263;SDS011;39153;52.680;6.172;2023-03-01T07:21:13;26.70;;;13.02;;
53263;SDS011;39153;52.680;6.172;2023-03-01T07:23:39;25.35;;;13.10;;
53263;SDS011;39153;52.680;6.172;2023-03-01T07:26:05;24.77;;;13.27;;
53263;SDS011;39153;52.680;6.172;2023-03-01T07:28:31;26.80;;;14.40;;
53263;SDS011;39153;52.680;6.172;2023-03-01T07:31:04;29.38;;;15.00;;
53263;SDS011;39153;52.680;6.172;2023-03-01T07:33:31;30.27;;;14.90;;
53263;SDS011;39153;52.680;6.172;2023-03-01T07:36:00;28.08;;;14.15;;
53263;SDS011;39153;52.680;6.172;2023-03-01T07:38:27;32.20;;;15.75;;
53263;SDS011;39153;52.680;6.172;2023-03-01T07:40:56;29.85;;;15.57;;
53263;SDS011;39153;52.680;6.172;2023-03-01T07:43:26;33.60;;;16.17;;
53263;SDS011;39153;52.680;6.172;2023-03-01T07:45:53;34.00;;;15.95;;
53263;SDS011;39153;52.680;6.172;2023-03-01T07:48:18;32.50;;;17.15;;
53263;SDS011;39153;52.680;6.172;2023-03-01T07:50:44;36.72;;;17.40;;
53263;SDS011;39153;52.680;6.172;2023-03-01T07:53:10;39.15;;;17.17;;
53263;SDS011;39153;52.680;6.172;2023-03-01T07:55:36;39.15;;;16.70;;
53263;SDS011;39153;52.680;6.172;2023-03-01T07:58:02;34.75;;;16.80;;
53263;SDS011;39153;52.680;6.172;2023-03-01T08:00:27;38.70;;;17.52;;
53263;SDS011;39153;52.680;6.172;2023-03-01T08:02:53;36.47;;;17.70;;
53263;SDS011;39153;52.680;6.172;2023-03-01T08:05:19;38.72;;;18.38;;
53263;SDS011;39153;52.680;6.172;2023-03-01T08:07:47;37.78;;;17.75;;
53263;SDS011;39153;52.680;6.172;2023-03-01T08:10:12;42.88;;;20.05;;
53263;SDS011;39153;52.680;6.172;2023-03-01T08:12:38;44.35;;;20.17;;
53263;SDS011;39153;52.680;6.172;2023-03-01T08:15:04;40.63;;;18.95;;
53263;SDS011;39153;52.680;6.172;2023-03-01T08:17:30;40.92;;;20.13;;
53263;SDS011;39153;52.680;6.172;2023-03-01T08:19:56;41.22;;;20.45;;
53263;SDS011;39153;52.680;6.172;2023-03-01T08:22:21;50.53;;;21.85;;
53263;SDS011;39153;52.680;6.172;2023-03-01T08:24:47;48.90;;;21.88;;
53263;SDS011;39153;52.680;6.172;2023-03-01T08:27:14;45.47;;;21.15;;
53263;SDS011;39153;52.680;6.172;2023-03-01T08:29:40;45.28;;;21.20;;
53263;SDS011;39153;52.680;6.172;2023-03-01T08:32:06;42.67;;;22.27;;
53263;SDS011;39153;52.680;6.172;2023-03-01T08:34:32;41.83;;;20.73;;
53263;SDS011;39153;52.680;6.172;2023-03-01T08:37:00;44.92;;;22.25;;
53263;SDS011;39153;52.680;6.172;2023-03-01T08:39:26;44.60;;;21.63;;
53263;SDS011;39153;52.680;6.172;2023-03-01T08:41:52;42.95;;;21.63;;
53263;SDS011;39153;52.680;6.172;2023-03-01T08:44:18;51.83;;;22.98;;
53263;SDS011;39153;52.680;6.172;2023-03-01T08:46:46;50.80;;;22.58;;
53263;SDS011;39153;52.680;6.172;2023-03-01T08:49:16;53.33;;;24.77;;
53263;SDS011;39153;52.680;6.172;2023-03-01T08:51:43;47.58;;;23.25;;
53263;SDS011;39153;52.680;6.172;2023-03-01T08:54:11;49.63;;;23.38;;
53263;SDS011;39153;52.680;6.172;2023-03-01T08:56:39;41.17;;;21.85;;
53263;SDS011;39153;52.680;6.172;2023-03-01T08:59:05;45.15;;;21.77;;
53263;SDS011;39153;52.680;6.172;2023-03-01T09:01:32;44.28;;;21.38;;
53263;SDS011;39153;52.680;6.172;2023-03-01T09:03:57;42.60;;;21.38;;
53263;SDS011;39153;52.680;6.172;2023-03-01T09:06:24;40.80;;;21.05;;
53263;SDS011;39153;52.680;6.172;2023-03-01T09:08:49;40.33;;;19.38;;
53263;SDS011;39153;52.680;6.172;2023-03-01T09:11:17;32.88;;;17.05;;
53263;SDS011;39153;52.680;6.172;2023-03-01T09:13:47;50.03;;;17.35;;
53263;SDS011;39153;52.680;6.172;2023-03-01T09:16:14;27.98;;;15.48;;
53263;SDS011;39153;52.680;6.172;2023-03-01T09:18:42;26.30;;;14.43;;
53263;SDS011;39153;52.680;6.172;2023-03-01T09:21:13;29.63;;;15.18;;
53263;SDS011;39153;52.680;6.172;2023-03-01T09:23:41;28.67;;;14.23;;
53263;SDS011;39153;52.680;6.172;2023-03-01T09:26:12;27.00;;;13.52;;
53263;SDS011;39153;52.680;6.172;2023-03-01T09:28:44;23.17;;;13.18;;
53263;SDS011;39153;52.680;6.172;2023-03-01T09:31:10;23.70;;;12.20;;
53263;SDS011;39153;52.680;6.172;2023-03-01T09:33:40;25.23;;;12.60;;
53263;SDS011;39153;52.680;6.172;2023-03-01T09:36:08;19.25;;;11.20;;
53263;SDS011;39153;52.680;6.172;2023-03-01T09:38:39;21.60;;;10.88;;
53263;SDS011;39153;52.680;6.172;2023-03-01T09:41:09;21.67;;;10.68;;
53263;SDS011;39153;52.680;6.172;2023-03-01T09:43:49;20.52;;;10.98;;
53263;SDS011;39153;52.680;6.172;2023-03-01T09:46:19;19.90;;;10.80;;
53263;SDS011;39153;52.680;6.172;2023-03-01T09:48:57;18.63;;;10.23;;
53263;SDS011;39153;52.680;6.172;2023-03-01T09:51:33;14.27;;;9.32;;
53263;SDS011;39153;52.680;6.172;2023-03-01T09:54:01;15.40;;;8.25;;
53263;SDS011;39153;52.680;6.172;2023-03-01T09:56:29;14.15;;;8.25;;
53263;SDS011;39153;52.680;6.172;2023-03-01T10:01:40;13.13;;;6.93;;
53263;SDS011;39153;52.680;6.172;2023-03-01T10:06:57;10.73;;;6.07;;
53263;SDS011;39153;52.680;6.172;2023-03-01T10:09:29;10.18;;;5.55;;
53263;SDS011;39153;52.680;6.172;2023-03-01T10:11:58;11.18;;;5.78;;
53263;SDS011;39153;52.680;6.172;2023-03-01T10:19:44;11.52;;;5.53;;
53263;SDS011;39153;52.680;6.172;2023-03-01T10:22:18;10.23;;;4.82;;
53263;SDS011;39153;52.680;6.172;2023-03-01T10:24:48;8.65;;;4.90;;
53263;SDS011;39153;52.680;6.172;2023-03-01T10:27:23;10.45;;;5.10;;
53263;SDS011;39153;52.680;6.172;2023-03-01T10:30:05;7.72;;;4.22;;
53263;SDS011;39153;52.680;6.172;2023-03-01T10:32:41;11.02;;;4.43;;
53263;SDS011;39153;52.680;6.172;2023-03-01T10:35:24;9.05;;;4.88;;
53263;SDS011;39153;52.680;6.172;2023-03-01T10:40:30;8.63;;;4.72;;
53263;SDS011;39153;52.680;6.172;2023-03-01T10:42:57;8.73;;;5.50;;
53263;SDS011;39153;52.680;6.172;2023-03-01T10:45:38;10.10;;;5.22;;
53263;SDS011;39153;52.680;6.172;2023-03-01T10:53:24;9.38;;;4.85;;
53263;SDS011;39153;52.680;6.172;2023-03-01T10:56:05;7.57;;;4.50;;
53263;SDS011;39153;52.680;6.172;2023-03-01T10:58:32;7.80;;;4.47;;
53263;SDS011;39153;52.680;6.172;2023-03-01T11:03:35;7.07;;;4.30;;
53263;SDS011;39153;52.680;6.172;2023-03-01T11:08:52;7.70;;;4.50;;
53263;SDS011;39153;52.680;6.172;2023-03-01T11:11:34;7.22;;;4.15;;
53263;SDS011;39153;52.680;6.172;2023-03-01T11:14:22;9.23;;;4.65;;
53263;SDS011;39153;52.680;6.172;2023-03-01T11:16:48;8.55;;;5.05;;
53263;SDS011;39153;52.680;6.172;2023-03-01T11:19:36;7.43;;;4.38;;
53263;SDS011;39153;52.680;6.172;2023-03-01T11:22:04;8.05;;;4.45;;
53263;SDS011;39153;52.680;6.172;2023-03-01T11:27:14;9.10;;;4.97;;
53263;SDS011;39153;52.680;6.172;2023-03-01T11:29:48;8.65;;;5.07;;
53263;SDS011;39153;52.680;6.172;2023-03-01T11:32:40;7.85;;;4.28;;
53263;SDS011;39153;52.680;6.172;2023-03-01T11:35:15;10.05;;;5.20;;
53263;SDS011;39153;52.680;6.172;2023-03-01T11:40:47;10.02;;;6.07;;
53263;SDS011;39153;52.680;6.172;2023-03-01T11:43:33;9.73;;;6.00;;
53263;SDS011;39153;52.680;6.172;2023-03-01T11:48:48;9.25;;;6.15;;
53263;SDS011;39153;52.680;6.172;2023-03-01T11:57:10;9.23;;;6.63;;
53263;SDS011;39153;52.680;6.172;2023-03-01T12:08:10;8.57;;;6.13;;
53263;SDS011;39153;52.680;6.172;2023-03-01T12:19:24;8.18;;;6.13;;
53263;SDS011;39153;52.680;6.172;2023-03-01T12:27:59;8.85;;;6.15;;
53263;SDS011;39153;52.680;6.172;2023-03-01T12:44:43;10.15;;;5.72;;
53263;SDS011;39153;52.680;6.172;2023-03-01T12:51:14;8.98;;;5.85;;
53263;SDS011;39153;52.680;6.172;2023-03-01T12:53:25;8.40;;;5.25;;
53263;SDS011;39153;52.680;6.172;2023-03-01T12:56:00;9.50;;;5.93;;
53263;SDS011;39153;52.680;6.172;2023-03-01T13:11:43;7.65;;;5.10;;
53263;SDS011;39153;52.680;6.172;2023-03-01T13:16:50;9.63;;;5.57;;
53263;SDS011;39153;52.680;6.172;2023-03-01T13:19:18;7.05;;;5.05;;
53263;SDS011;39153;52.680;6.172;2023-03-01T13:21:50;8.95;;;5.88;;
53263;SDS011;39153;52.680;6.172;2023-03-01T13:27:08;8.95;;;6.18;;
53263;SDS011;39153;52.680;6.172;2023-03-01T13:29:49;8.88;;;5.38;;
53263;SDS011;39153;52.680;6.172;2023-03-01T13:32:26;9.07;;;6.15;;
53263;SDS011;39153;52.680;6.172;2023-03-01T13:37:44;8.70;;;5.88;;
53263;SDS011;39153;52.680;6.172;2023-03-01T13:42:50;9.50;;;5.78;;
53263;SDS011;39153;52.680;6.172;2023-03-01T13:45:25;8.15;;;5.60;;
53263;SDS011;39153;52.680;6.172;2023-03-01T13:48:22;8.43;;;5.20;;
53263;SDS011;39153;52.680;6.172;2023-03-01T13:50:58;8.18;;;6.00;;
53263;SDS011;39153;52.680;6.172;2023-03-01T13:53:28;8.07;;;5.57;;
53263;SDS011;39153;52.680;6.172;2023-03-01T13:56:15;8.27;;;5.57;;
53263;SDS011;39153;52.680;6.172;2023-03-01T13:59:04;10.38;;;5.50;;
53263;SDS011;39153;52.680;6.172;2023-03-01T14:01:37;8.70;;;5.63;;
53263;SDS011;39153;52.680;6.172;2023-03-01T14:04:14;8.98;;;5.57;;
53263;SDS011;39153;52.680;6.172;2023-03-01T14:06:47;8.90;;;5.47;;
53263;SDS011;39153;52.680;6.172;2023-03-01T14:14:51;8.38;;;5.93;;
53263;SDS011;39153;52.680;6.172;2023-03-01T14:20:18;7.55;;;5.40;;
53263;SDS011;39153;52.680;6.172;2023-03-01T14:22:49;7.55;;;5.28;;
53263;SDS011;39153;52.680;6.172;2023-03-01T14:27:56;10.60;;;6.40;;
53263;SDS011;39153;52.680;6.172;2023-03-01T14:30:36;8.85;;;6.03;;
53263;SDS011;39153;52.680;6.172;2023-03-01T14:33:05;10.15;;;6.03;;
53263;SDS011;39153;52.680;6.172;2023-03-01T14:35:42;8.57;;;6.03;;
53263;SDS011;39153;52.680;6.172;2023-03-01T14:38:23;9.60;;;6.28;;
53263;SDS011;39153;52.680;6.172;2023-03-01T14:41:01;10.65;;;6.70;;
53263;SDS011;39153;52.680;6.172;2023-03-01T14:43:37;9.43;;;6.13;;
53263;SDS011;39153;52.680;6.172;2023-03-01T14:46:05;9.65;;;6.30;;
53263;SDS011;39153;52.680;6.172;2023-03-01T14:48:37;8.75;;;5.25;;
53263;SDS011;39153;52.680;6.172;2023-03-01T14:51:04;9.88;;;6.90;;
53263;SDS011;39153;52.680;6.172;2023-03-01T14:53:30;10.77;;;6.20;;
53263;SDS011;39153;52.680;6.172;2023-03-01T14:55:59;10.85;;;6.80;;
53263;SDS011;39153;52.680;6.172;2023-03-01T14:58:31;10.85;;;7.10;;
53263;SDS011;39153;52.680;6.172;2023-03-01T15:00:59;9.10;;;6.05;;
53263;SDS011;39153;52.680;6.172;2023-03-01T15:03:43;9.77;;;6.20;;
53263;SDS011;39153;52.680;6.172;2023-03-01T15:06:12;9.40;;;6.00;;
53263;SDS011;39153;52.680;6.172;2023-03-01T15:08:44;11.15;;;6.25;;
53263;SDS011;39153;52.680;6.172;2023-03-01T15:13:52;9.73;;;6.03;;
53263;SDS011;39153;52.680;6.172;2023-03-01T15:16:32;8.57;;;5.93;;
53263;SDS011;39153;52.680;6.172;2023-03-01T15:19:00;10.30;;;6.50;;
53263;SDS011;39153;52.680;6.172;2023-03-01T15:21:38;10.77;;;6.70;;
53263;SDS011;39153;52.680;6.172;2023-03-01T15:24:13;10.57;;;6.97;;
53263;SDS011;39153;52.680;6.172;2023-03-01T15:26:52;11.80;;;6.40;;
53263;SDS011;39153;52.680;6.172;2023-03-01T15:29:27;9.48;;;6.65;;
53263;SDS011;39153;52.680;6.172;2023-03-01T15:32:04;10.93;;;6.75;;
53263;SDS011;39153;52.680;6.172;2023-03-01T15:34:47;11.68;;;7.20;;
53263;SDS011;39153;52.680;6.172;2023-03-01T15:37:47;11.32;;;7.38;;
53263;SDS011;39153;52.680;6.172;2023-03-01T15:42:45;12.10;;;7.95;;
53263;SDS011;39153;52.680;6.172;2023-03-01T15:45:20;12.75;;;7.70;;
53263;SDS011;39153;52.680;6.172;2023-03-01T15:47:52;13.80;;;7.85;;
53263;SDS011;39153;52.680;6.172;2023-03-01T15:50:29;12.30;;;8.00;;
53263;SDS011;39153;52.680;6.172;2023-03-01T15:52:59;15.13;;;8.30;;
53263;SDS011;39153;52.680;6.172;2023-03-01T15:55:30;11.43;;;7.90;;
53263;SDS011;39153;52.680;6.172;2023-03-01T15:58:02;13.50;;;8.15;;
53263;SDS011;39153;52.680;6.172;2023-03-01T16:00:28;13.55;;;8.18;;
53263;SDS011;39153;52.680;6.172;2023-03-01T16:02:54;11.95;;;7.40;;
53263;SDS011;39153;52.680;6.172;2023-03-01T16:05:27;13.43;;;8.23;;
53263;SDS011;39153;52.680;6.172;2023-03-01T16:07:58;12.98;;;8.55;;
53263;SDS011;39153;52.680;6.172;2023-03-01T16:10:24;12.13;;;8.20;;
53263;SDS011;39153;52.680;6.172;2023-03-01T16:12:50;13.63;;;7.45;;
53263;SDS011;39153;52.680;6.172;2023-03-01T16:15:21;14.90;;;8.75;;
53263;SDS011;39153;52.680;6.172;2023-03-01T16:17:52;14.02;;;7.90;;
53263;SDS011;39153;52.680;6.172;2023-03-01T16:20:18;12.30;;;7.57;;
53263;SDS011;39153;52.680;6.172;2023-03-01T16:22:44;14.18;;;8.13;;
53263;SDS011;39153;52.680;6.172;2023-03-01T16:25:11;13.63;;;7.70;;
53263;SDS011;39153;52.680;6.172;2023-03-01T16:27:41;13.05;;;7.95;;
53263;SDS011;39153;52.680;6.172;2023-03-01T16:30:08;13.02;;;8.30;;
53263;SDS011;39153;52.680;6.172;2023-03-01T16:32:40;13.73;;;8.40;;
53263;SDS011;39153;52.680;6.172;2023-03-01T16:35:09;11.38;;;7.80;;
53263;SDS011;39153;52.680;6.172;2023-03-01T16:37:35;12.07;;;7.65;;
53263;SDS011;39153;52.680;6.172;2023-03-01T16:40:02;14.85;;;7.90;;
53263;SDS011;39153;52.680;6.172;2023-03-01T16:42:33;13.00;;;7.95;;
53263;SDS011;39153;52.680;6.172;2023-03-01T16:44:59;12.00;;;8.23;;
53263;SDS011;39153;52.680;6.172;2023-03-01T16:47:26;12.18;;;7.85;;
53263;SDS011;39153;52.680;6.172;2023-03-01T16:49:52;13.07;;;7.45;;
53263;SDS011;39153;52.680;6.172;2023-03-01T16:52:19;13.68;;;8.40;;